Weather History for KENV - October, 2011

Change the Weather History Date:

Monday, October 17, 2011

  Actual Average Record
Temperature  
Mean Temperature 52 °F -  
Max Temperature 60 °F 61 °F 80 °F (1991)
Min Temperature 44 °F 40 °F 26 °F (1996)
Degree Days  
Heating Degree Days 13    
Growing Degree Days 2 (Base 50)    
Moisture  
Dew Point 32 °F    
Average Humidity 47    
Maximum Humidity 66    
Minimum Humidity 27    
Precipitation  
Precipitation 0.00 in - - ()
Sea Level Pressure  
Sea Level Pressure 30.33 in    
Wind  
Wind Speed 10 mph (SSE)    
Max Wind Speed 26 mph    
Max Gust Speed 33 mph    
Visibility 10 miles    
Events      
Averages and records for this station are not official NWS values.
T = Trace of Precipitation, MM = Missing Value Source: NWS Daily Summary

Daily Weather History Graph

Daily Weather History Graph

Search for Another Location

Airport or City:

Trip Planner

Search our weather history database for the weather conditions in past years. The results will help you decide how hot, cold, wet, or windy it might be!

Date:

Astronomy

Oct. 17, 2011 Rise Set
Actual Time 7:49 AM MDT 6:53 PM MDT
Civil Twilight 7:21 AM MDT 7:20 PM MDT
Nautical Twilight 6:49 AM MDT 7:52 PM MDT
Astronomical Twilight 6:18 AM MDT 8:24 PM MDT
Moon 10:36 PM MDT (10/17) 1:00 PM MDT (10/17)
Length of Visible Light 11h 59m
Length of Day
11h 03m
Waning Gibbous, 73% of the Moon is Illuminated
Oct 17
Waning Gibbous
Oct 19
Last Quarter
Oct 26
New
Nov 2
First Quarter
Nov 10
Full

Hourly Weather History & Observations

Time (MDT) Temp. Windchill Dew Point Humidity Pressure Visibility Wind Dir Wind Speed Gust Speed Precip Events Conditions
12:15 AM 53.6 °F - 39.2 °F 58% 30.18 in 10.0 mi West 17.3 mph - N/A   Partly Cloudy
12:35 AM 53.6 °F - 37.4 °F 54% 30.17 in 10.0 mi WNW 17.3 mph - N/A   Scattered Clouds
12:55 AM 53.6 °F - 35.6 °F 51% 30.18 in 10.0 mi NW 12.7 mph - N/A   Clear
1:15 AM 53.6 °F - 35.6 °F 51% 30.19 in 10.0 mi NNW 16.1 mph 23.0 mph N/A   Clear
1:35 AM 53.6 °F - 35.6 °F 51% 30.20 in 10.0 mi NNW 19.6 mph 26.5 mph N/A   Clear
1:55 AM 51.8 °F - 35.6 °F 54% 30.20 in 10.0 mi NW 26.5 mph 33.4 mph N/A   Clear
2:15 AM 51.8 °F - 35.6 °F 54% 30.20 in 10.0 mi NNW 21.9 mph 28.8 mph N/A   Clear
2:35 AM 51.8 °F - 35.6 °F 54% 30.21 in 10.0 mi North 17.3 mph 26.5 mph N/A   Clear
3:15 AM 51.8 °F - 35.6 °F 54% 30.25 in 10.0 mi Calm Calm - N/A   Clear
3:35 AM 51.8 °F - 35.6 °F 54% 30.25 in 10.0 mi SSE 6.9 mph - N/A   Clear
3:55 AM 51.8 °F - 35.6 °F 54% 30.26 in 10.0 mi Calm Calm - N/A   Partly Cloudy
4:15 AM 51.8 °F - 35.6 °F 54% 30.26 in 10.0 mi West 4.6 mph - N/A   Partly Cloudy
4:55 AM 51.8 °F - 33.8 °F 50% 30.28 in 10.0 mi WNW 13.8 mph - N/A   Clear
5:15 AM 48.2 °F - 33.8 °F 58% 30.27 in 10.0 mi West 11.5 mph - N/A   Clear
5:35 AM 50.0 °F - 33.8 °F 54% 30.27 in 10.0 mi WNW 20.7 mph 25.3 mph N/A   Clear
5:55 AM 48.2 °F - 33.8 °F 58% 30.29 in 10.0 mi West 11.5 mph - N/A   Clear
6:15 AM 51.8 °F - 30.2 °F 44% 30.30 in 10.0 mi WNW 9.2 mph - N/A   Clear
6:35 AM 51.8 °F - 30.2 °F 44% 30.30 in 10.0 mi South 4.6 mph - N/A   Clear
6:55 AM 50.0 °F - 32.0 °F 50% 30.31 in 10.0 mi South 5.8 mph - N/A   Clear
7:15 AM 46.4 °F 41.9 °F 32.0 °F 57% 30.32 in 10.0 mi SE 9.2 mph - N/A   Clear
7:35 AM 46.4 °F 45.2 °F 33.8 °F 62% 30.34 in 10.0 mi North 3.5 mph - N/A   Clear
7:55 AM 46.4 °F - 33.8 °F 62% 30.34 in 10.0 mi Calm Calm - N/A   Clear
8:15 AM 44.6 °F - 32.0 °F 61% 30.35 in 10.0 mi Calm Calm - N/A   Clear
8:35 AM 46.4 °F 45.2 °F 33.8 °F 62% 30.36 in 10.0 mi South 3.5 mph - N/A   Clear
9:15 AM 46.4 °F - 35.6 °F 66% 30.38 in 10.0 mi Calm Calm - N/A   Clear
9:35 AM 48.2 °F - 35.6 °F 62% 30.39 in 10.0 mi SSE 6.9 mph - N/A   Clear
9:56 AM 50.0 °F - 35.6 °F 58% 30.40 in 10.0 mi South 8.1 mph - N/A   Clear
10:15 AM 51.8 °F - 35.6 °F 54% 30.40 in 10.0 mi South 9.2 mph - N/A   Clear
10:35 AM 53.6 °F - 35.6 °F 51% 30.41 in 10.0 mi SSE 9.2 mph - N/A   Clear
11:15 AM 53.6 °F - 35.6 °F 51% 30.42 in 10.0 mi ESE 5.8 mph - N/A   Clear
11:35 AM 55.4 °F - 33.8 °F 44% 30.42 in 10.0 mi SSE 5.8 mph - N/A   Clear
11:55 AM 55.4 °F - 32.0 °F 41% 30.42 in 10.0 mi SSE 4.6 mph - N/A   Clear
12:15 PM 55.4 °F - 33.8 °F 44% 30.41 in 10.0 mi SE 5.8 mph - N/A   Clear
12:55 PM 57.2 °F - 30.2 °F 36% 30.40 in 10.0 mi SE 6.9 mph - N/A   Clear
1:15 PM 57.2 °F - 30.2 °F 36% 30.40 in 10.0 mi SSE 3.5 mph - N/A   Clear
1:35 PM 57.2 °F - 32.0 °F 38% 30.39 in 10.0 mi SE 6.9 mph - N/A   Clear
1:56 PM 57.2 °F - 30.2 °F 36% 30.38 in 10.0 mi East 5.8 mph - N/A   Clear
2:15 PM 59.0 °F - 28.4 °F 31% 30.37 in 10.0 mi ESE 5.8 mph - N/A   Clear
2:35 PM 59.0 °F - 30.2 °F 34% 30.37 in 10.0 mi SE 6.9 mph - N/A   Clear
3:16 PM 59.0 °F - 28.4 °F 31% 30.36 in 10.0 mi East 6.9 mph - N/A   Clear
3:35 PM 60.8 °F - 28.4 °F 29% 30.35 in 10.0 mi ESE 4.6 mph - N/A   Clear
3:55 PM 60.8 °F - 28.4 °F 29% 30.35 in 10.0 mi SE 5.8 mph - N/A   Clear
4:35 PM 60.8 °F - 26.6 °F 27% 30.35 in 10.0 mi ESE 3.5 mph - N/A   Clear
5:15 PM 60.8 °F - 26.6 °F 27% 30.34 in 10.0 mi Calm Calm - N/A   Clear
5:35 PM 60.8 °F - 26.6 °F 27% 30.34 in 10.0 mi ESE 3.5 mph - N/A   Clear
6:15 PM 59.0 °F - 26.6 °F 29% 30.34 in 10.0 mi East 3.5 mph - N/A   Clear
6:36 PM 59.0 °F - 28.4 °F 31% 30.34 in 10.0 mi East 3.5 mph - N/A   Clear
6:55 PM 57.2 °F - 28.4 °F 33% 30.35 in 10.0 mi Calm Calm - N/A   Clear
7:15 PM 55.4 °F - 28.4 °F 36% 30.35 in 10.0 mi Calm Calm - N/A   Clear
7:35 PM 55.4 °F - 26.6 °F 33% 30.36 in 10.0 mi Calm Calm - N/A   Clear
7:55 PM 55.4 °F - 28.4 °F 36% 30.36 in 10.0 mi Calm Calm - N/A   Clear
8:15 PM 53.6 °F - 28.4 °F 38% 30.36 in 10.0 mi Calm Calm - N/A   Clear
8:35 PM 51.8 °F - 30.2 °F 44% 30.36 in 10.0 mi WSW 4.6 mph - N/A   Clear
9:15 PM 51.8 °F - 30.2 °F 44% 30.36 in 10.0 mi Calm Calm - N/A   Clear
9:35 PM 50.0 °F - 30.2 °F 47% 30.36 in 10.0 mi North 3.5 mph - N/A   Clear
9:55 PM 48.2 °F - 30.2 °F 50% 30.36 in 10.0 mi Calm Calm - N/A   Clear
10:15 PM 50.0 °F - 28.4 °F 43% 30.36 in 10.0 mi Calm Calm - N/A   Clear
10:35 PM 48.2 °F - 33.8 °F 58% 30.37 in 10.0 mi Calm Calm - N/A   Clear
10:55 PM 48.2 °F - 32.0 °F 54% 30.37 in 10.0 mi Calm Calm - N/A   Clear
11:15 PM 46.4 °F - 32.0 °F 57% 30.37 in 10.0 mi Calm Calm - N/A   Clear
11:35 PM 46.4 °F - 30.2 °F 53% 30.37 in 10.0 mi Calm Calm - N/A   Clear
11:56 PM 44.6 °F 43.1 °F 28.4 °F 53% 30.36 in 10.0 mi WSW 3.5 mph - N/A   Clear